sensor_id;sensor_type;location;lat;lon;timestamp;pressure;altitude;pressure_sealevel;temperature;humidity
18436;BME280;9346;52.006;4.720;2023-01-30T00:01:25;101709.06;;;7.89;100.00
18436;BME280;9346;52.006;4.720;2023-01-30T00:03:52;101704.16;;;7.91;100.00
18436;BME280;9346;52.006;4.720;2023-01-30T00:06:19;101711.09;;;7.94;100.00
18436;BME280;9346;52.006;4.720;2023-01-30T00:08:49;101703.22;;;7.97;100.00
18436;BME280;9346;52.006;4.720;2023-01-30T00:11:17;101706.59;;;7.99;100.00
18436;BME280;9346;52.006;4.720;2023-01-30T00:13:45;101695.72;;;8.04;100.00
18436;BME280;9346;52.006;4.720;2023-01-30T00:16:15;101683.41;;;8.07;100.00
18436;BME280;9346;52.006;4.720;2023-01-30T00:18:43;101684.28;;;8.07;100.00
18436;BME280;9346;52.006;4.720;2023-01-30T00:21:13;101675.56;;;8.10;100.00
18436;BME280;9346;52.006;4.720;2023-01-30T00:23:41;101684.16;;;8.14;100.00
18436;BME280;9346;52.006;4.720;2023-01-30T00:26:11;101687.72;;;8.14;100.00
18436;BME280;9346;52.006;4.720;2023-01-30T00:28:38;101680.94;;;8.17;100.00
18436;BME280;9346;52.006;4.720;2023-01-30T00:31:08;101667.81;;;8.19;100.00
18436;BME280;9346;52.006;4.720;2023-01-30T00:33:37;101659.97;;;8.22;100.00
18436;BME280;9346;52.006;4.720;2023-01-30T00:36:05;101652.56;;;8.23;100.00
18436;BME280;9346;52.006;4.720;2023-01-30T00:38:31;101650.66;;;8.23;100.00
18436;BME280;9346;52.006;4.720;2023-01-30T00:40:59;101652.06;;;8.26;100.00
18436;BME280;9346;52.006;4.720;2023-01-30T00:43:27;101651.59;;;8.29;100.00
18436;BME280;9346;52.006;4.720;2023-01-30T00:46:14;101645.63;;;8.32;100.00
18436;BME280;9346;52.006;4.720;2023-01-30T00:48:59;101631.91;;;8.32;100.00
18436;BME280;9346;52.006;4.720;2023-01-30T00:51:26;101637.41;;;8.32;100.00
18436;BME280;9346;52.006;4.720;2023-01-30T00:53:53;101625.13;;;8.34;100.00
18436;BME280;9346;52.006;4.720;2023-01-30T00:56:20;101621.88;;;8.37;100.00
18436;BME280;9346;52.006;4.720;2023-01-30T00:58:49;101618.06;;;8.38;100.00
18436;BME280;9346;52.006;4.720;2023-01-30T01:01:16;101625.22;;;8.39;100.00
18436;BME280;9346;52.006;4.720;2023-01-30T01:03:42;101627.97;;;8.39;100.00
18436;BME280;9346;52.006;4.720;2023-01-30T01:06:10;101615.91;;;8.40;100.00
18436;BME280;9346;52.006;4.720;2023-01-30T01:08:37;101600.88;;;8.43;100.00
18436;BME280;9346;52.006;4.720;2023-01-30T01:11:04;101583.31;;;8.44;100.00
18436;BME280;9346;52.006;4.720;2023-01-30T01:13:32;101571.50;;;8.43;100.00
18436;BME280;9346;52.006;4.720;2023-01-30T01:16:01;101562.19;;;8.44;100.00
18436;BME280;9346;52.006;4.720;2023-01-30T01:18:28;101563.88;;;8.45;100.00
18436;BME280;9346;52.006;4.720;2023-01-30T01:20:55;101561.97;;;8.46;100.00
18436;BME280;9346;52.006;4.720;2023-01-30T01:23:22;101554.53;;;8.46;100.00
18436;BME280;9346;52.006;4.720;2023-01-30T01:25:49;101546.06;;;8.48;100.00
18436;BME280;9346;52.006;4.720;2023-01-30T01:28:16;101547.16;;;8.47;100.00
18436;BME280;9346;52.006;4.720;2023-01-30T01:30:46;101568.25;;;8.46;100.00
18436;BME280;9346;52.006;4.720;2023-01-30T01:33:15;101566.97;;;8.49;100.00
18436;BME280;9346;52.006;4.720;2023-01-30T01:35:42;101564.22;;;8.49;100.00
18436;BME280;9346;52.006;4.720;2023-01-30T01:38:09;101569.72;;;8.49;100.00
18436;BME280;9346;52.006;4.720;2023-01-30T01:40:35;101563.38;;;8.48;100.00
18436;BME280;9346;52.006;4.720;2023-01-30T01:43:22;101562.53;;;8.48;100.00
18436;BME280;9346;52.006;4.720;2023-01-30T01:45:51;101570.28;;;8.51;100.00
18436;BME280;9346;52.006;4.720;2023-01-30T01:48:24;101563.38;;;8.48;100.00
18436;BME280;9346;52.006;4.720;2023-01-30T01:50:56;101557.88;;;8.48;100.00
18436;BME280;9346;52.006;4.720;2023-01-30T01:53:29;101568.03;;;8.48;100.00
18436;BME280;9346;52.006;4.720;2023-01-30T01:56:01;101558.97;;;8.47;100.00
18436;BME280;9346;52.006;4.720;2023-01-30T01:58:33;101538.66;;;8.48;100.00
18436;BME280;9346;52.006;4.720;2023-01-30T02:01:03;101554.06;;;8.49;100.00
18436;BME280;9346;52.006;4.720;2023-01-30T02:03:36;101552.41;;;8.48;100.00
18436;BME280;9346;52.006;4.720;2023-01-30T02:06:04;101561.13;;;8.45;100.00
18436;BME280;9346;52.006;4.720;2023-01-30T02:08:33;101562.19;;;8.44;100.00
18436;BME280;9346;52.006;4.720;2023-01-30T02:11:05;101565.19;;;8.43;100.00
18436;BME280;9346;52.006;4.720;2023-01-30T02:13:34;101563.75;;;8.40;100.00
18436;BME280;9346;52.006;4.720;2023-01-30T02:16:03;101553.00;;;8.39;100.00
18436;BME280;9346;52.006;4.720;2023-01-30T02:18:33;101557.69;;;8.38;100.00
18436;BME280;9346;52.006;4.720;2023-01-30T02:21:34;101557.06;;;8.36;100.00
18436;BME280;9346;52.006;4.720;2023-01-30T02:24:30;101556.22;;;8.36;100.00
18436;BME280;9346;52.006;4.720;2023-01-30T02:27:13;101548.28;;;8.34;100.00
18436;BME280;9346;52.006;4.720;2023-01-30T02:33:02;101543.59;;;8.35;100.00
18436;BME280;9346;52.006;4.720;2023-01-30T02:35:37;101542.50;;;8.36;100.00
18436;BME280;9346;52.006;4.720;2023-01-30T02:38:18;101537.00;;;8.36;100.00
18436;BME280;9346;52.006;4.720;2023-01-30T02:40:59;101537.84;;;8.36;100.00
18436;BME280;9346;52.006;4.720;2023-01-30T02:43:32;101536.78;;;8.37;100.00
18436;BME280;9346;52.006;4.720;2023-01-30T02:46:08;101534.03;;;8.37;100.00
18436;BME280;9346;52.006;4.720;2023-01-30T02:48:41;101532.13;;;8.38;100.00
18436;BME280;9346;52.006;4.720;2023-01-30T02:51:13;101525.78;;;8.37;100.00
18436;BME280;9346;52.006;4.720;2023-01-30T02:53:45;101526.63;;;8.38;100.00
18436;BME280;9346;52.006;4.720;2023-01-30T02:56:14;101531.03;;;8.39;100.00
18436;BME280;9346;52.006;4.720;2023-01-30T02:58:45;101532.50;;;8.41;100.00
18436;BME280;9346;52.006;4.720;2023-01-30T03:01:25;101525.06;;;8.42;100.00
18436;BME280;9346;52.006;4.720;2023-01-30T03:04:11;101518.75;;;8.41;100.00
18436;BME280;9346;52.006;4.720;2023-01-30T03:06:58;101533.06;;;8.43;100.00
18436;BME280;9346;52.006;4.720;2023-01-30T03:09:35;101523.16;;;8.42;100.00
18436;BME280;9346;52.006;4.720;2023-01-30T03:12:12;101528.41;;;8.44;100.00
18436;BME280;9346;52.006;4.720;2023-01-30T03:14:45;101531.75;;;8.46;100.00
18436;BME280;9346;52.006;4.720;2023-01-30T03:17:16;101529.00;;;8.46;100.00
18436;BME280;9346;52.006;4.720;2023-01-30T03:19:46;101516.09;;;8.46;100.00
18436;BME280;9346;52.006;4.720;2023-01-30T03:22:13;101513.13;;;8.48;100.00
18436;BME280;9346;52.006;4.720;2023-01-30T03:24:41;101521.94;;;8.50;100.00
18436;BME280;9346;52.006;4.720;2023-01-30T03:27:10;101525.25;;;8.52;100.00
18436;BME280;9346;52.006;4.720;2023-01-30T03:29:38;101518.72;;;8.53;100.00
18436;BME280;9346;52.006;4.720;2023-01-30T03:32:05;101517.38;;;8.55;100.00
18436;BME280;9346;52.006;4.720;2023-01-30T03:34:32;101521.53;;;8.58;100.00
18436;BME280;9346;52.006;4.720;2023-01-30T03:37:01;101511.41;;;8.58;100.00
18436;BME280;9346;52.006;4.720;2023-01-30T03:39:28;101506.28;;;8.62;100.00
18436;BME280;9346;52.006;4.720;2023-01-30T03:41:55;101512.34;;;8.64;100.00
18436;BME280;9346;52.006;4.720;2023-01-30T03:44:22;101508.16;;;8.61;100.00
18436;BME280;9346;52.006;4.720;2023-01-30T03:46:50;101500.53;;;8.63;100.00
18436;BME280;9346;52.006;4.720;2023-01-30T03:49:16;101492.88;;;8.65;100.00
18436;BME280;9346;52.006;4.720;2023-01-30T03:51:45;101499.19;;;8.66;100.00
18436;BME280;9346;52.006;4.720;2023-01-30T03:54:13;101508.25;;;8.66;100.00
18436;BME280;9346;52.006;4.720;2023-01-30T03:56:40;101508.25;;;8.66;100.00
18436;BME280;9346;52.006;4.720;2023-01-30T03:59:07;101506.59;;;8.65;100.00
18436;BME280;9346;52.006;4.720;2023-01-30T04:01:34;101511.59;;;8.68;100.00
18436;BME280;9346;52.006;4.720;2023-01-30T04:04:04;101506.34;;;8.67;100.00
18436;BME280;9346;52.006;4.720;2023-01-30T04:06:31;101508.38;;;8.71;100.00
18436;BME280;9346;52.006;4.720;2023-01-30T04:08:58;101503.34;;;8.68;100.00
18436;BME280;9346;52.006;4.720;2023-01-30T04:11:27;101508.38;;;8.71;100.00
18436;BME280;9346;52.006;4.720;2023-01-30T04:13:54;101503.72;;;8.72;100.00
18436;BME280;9346;52.006;4.720;2023-01-30T04:16:22;101500.13;;;8.71;100.00
18436;BME280;9346;52.006;4.720;2023-01-30T04:18:50;101504.53;;;8.72;100.00
18436;BME280;9346;52.006;4.720;2023-01-30T04:21:17;101499.88;;;8.73;100.00
18436;BME280;9346;52.006;4.720;2023-01-30T04:23:44;101490.22;;;8.70;100.00
18436;BME280;9346;52.006;4.720;2023-01-30T04:26:11;101509.47;;;8.70;100.00
18436;BME280;9346;52.006;4.720;2023-01-30T04:28:40;101518.19;;;8.67;100.00
18436;BME280;9346;52.006;4.720;2023-01-30T04:31:09;101508.53;;;8.65;100.00
18436;BME280;9346;52.006;4.720;2023-01-30T04:33:36;101505.19;;;8.63;100.00
18436;BME280;9346;52.006;4.720;2023-01-30T04:36:05;101498.28;;;8.60;100.00
18436;BME280;9346;52.006;4.720;2023-01-30T04:38:33;101514.75;;;8.60;100.00
18436;BME280;9346;52.006;4.720;2023-01-30T04:41:01;101516.91;;;8.58;100.00
18436;BME280;9346;52.006;4.720;2023-01-30T04:43:29;101527.03;;;8.58;100.00
18436;BME280;9346;52.006;4.720;2023-01-30T04:45:58;101520.13;;;8.55;100.00
18436;BME280;9346;52.006;4.720;2023-01-30T04:48:25;101528.97;;;8.57;100.00
18436;BME280;9346;52.006;4.720;2023-01-30T04:50:54;101534.47;;;8.57;100.00
18436;BME280;9346;52.006;4.720;2023-01-30T04:53:22;101530.38;;;8.60;100.00
18436;BME280;9346;52.006;4.720;2023-01-30T04:55:50;101535.16;;;8.64;100.00
18436;BME280;9346;52.006;4.720;2023-01-30T04:58:31;101520.44;;;8.70;100.00
18436;BME280;9346;52.006;4.720;2023-01-30T05:01:14;101512.28;;;8.75;100.00
18436;BME280;9346;52.006;4.720;2023-01-30T05:03:41;101509.03;;;8.78;100.00
18436;BME280;9346;52.006;4.720;2023-01-30T05:06:08;101495.06;;;8.80;100.00
18436;BME280;9346;52.006;4.720;2023-01-30T05:08:35;101484.69;;;8.82;100.00
18436;BME280;9346;52.006;4.720;2023-01-30T05:11:02;101499.22;;;8.82;100.00
18436;BME280;9346;52.006;4.720;2023-01-30T05:13:29;101503.06;;;8.81;100.00
18436;BME280;9346;52.006;4.720;2023-01-30T05:15:56;101502.50;;;8.79;100.00
18436;BME280;9346;52.006;4.720;2023-01-30T05:18:25;101504.88;;;8.76;100.00
18436;BME280;9346;52.006;4.720;2023-01-30T05:20:53;101514.47;;;8.73;100.00
18436;BME280;9346;52.006;4.720;2023-01-30T05:23:20;101513.00;;;8.71;100.00
18436;BME280;9346;52.006;4.720;2023-01-30T05:25:50;101516.50;;;8.66;100.00
18436;BME280;9346;52.006;4.720;2023-01-30T05:28:17;101521.66;;;8.63;100.00
18436;BME280;9346;52.006;4.720;2023-01-30T05:30:44;101514.50;;;8.62;100.00
18436;BME280;9346;52.006;4.720;2023-01-30T05:33:11;101520.50;;;8.59;100.00
18436;BME280;9346;52.006;4.720;2023-01-30T05:35:45;101519.03;;;8.56;100.00
18436;BME280;9346;52.006;4.720;2023-01-30T05:38:15;101523.59;;;8.51;100.00
18436;BME280;9346;52.006;4.720;2023-01-30T05:40:42;101524.09;;;8.48;100.00
18436;BME280;9346;52.006;4.720;2023-01-30T05:43:09;101538.31;;;8.45;100.00
18436;BME280;9346;52.006;4.720;2023-01-30T05:45:37;101540.72;;;8.41;100.00
18436;BME280;9346;52.006;4.720;2023-01-30T05:48:05;101537.38;;;8.39;100.00
18436;BME280;9346;52.006;4.720;2023-01-30T05:50:32;101547.75;;;8.37;100.00
18436;BME280;9346;52.006;4.720;2023-01-30T05:53:01;101536.19;;;8.35;100.00
18436;BME280;9346;52.006;4.720;2023-01-30T05:55:28;101534.53;;;8.34;100.00
18436;BME280;9346;52.006;4.720;2023-01-30T05:57:55;101536.06;;;8.30;100.00
18436;BME280;9346;52.006;4.720;2023-01-30T06:00:22;101539.31;;;8.27;100.00
18436;BME280;9346;52.006;4.720;2023-01-30T06:02:51;101536.22;;;8.24;100.00
18436;BME280;9346;52.006;4.720;2023-01-30T06:05:18;101542.41;;;8.19;100.00
18436;BME280;9346;52.006;4.720;2023-01-30T06:07:44;101539.06;;;8.17;100.00
18436;BME280;9346;52.006;4.720;2023-01-30T06:10:13;101535.97;;;8.14;100.00
18436;BME280;9346;52.006;4.720;2023-01-30T06:12:40;101544.69;;;8.11;100.00
18436;BME280;9346;52.006;4.720;2023-01-30T06:15:08;101547.91;;;8.08;100.00
18436;BME280;9346;52.006;4.720;2023-01-30T06:17:35;101565.09;;;8.03;100.00
18436;BME280;9346;52.006;4.720;2023-01-30T06:20:03;101544.47;;;8.01;100.00
18436;BME280;9346;52.006;4.720;2023-01-30T06:22:30;101544.72;;;7.99;100.00
18436;BME280;9346;52.006;4.720;2023-01-30T06:24:57;101540.28;;;7.98;100.00
18436;BME280;9346;52.006;4.720;2023-01-30T06:27:27;101537.19;;;7.95;100.00
18436;BME280;9346;52.006;4.720;2023-01-30T06:29:55;101543.97;;;7.92;100.00
18436;BME280;9346;52.006;4.720;2023-01-30T06:32:24;101534.31;;;7.90;100.00
18436;BME280;9346;52.006;4.720;2023-01-30T06:34:50;101544.72;;;7.88;100.00
18436;BME280;9346;52.006;4.720;2023-01-30T06:37:17;101539.97;;;7.83;100.00
18436;BME280;9346;52.006;4.720;2023-01-30T06:39:45;101533.88;;;7.81;100.00
18436;BME280;9346;52.006;4.720;2023-01-30T06:42:12;101533.88;;;7.81;100.00
18436;BME280;9346;52.006;4.720;2023-01-30T06:44:42;101518.72;;;7.79;100.00
18436;BME280;9346;52.006;4.720;2023-01-30T06:47:12;101514.06;;;7.79;100.00
18436;BME280;9346;52.006;4.720;2023-01-30T06:49:39;101531.38;;;7.80;100.00
18436;BME280;9346;52.006;4.720;2023-01-30T06:52:08;101535.19;;;7.79;100.00
18436;BME280;9346;52.006;4.720;2023-01-30T06:54:35;101543.88;;;7.76;100.00
18436;BME280;9346;52.006;4.720;2023-01-30T06:57:02;101544.97;;;7.75;100.00
18436;BME280;9346;52.006;4.720;2023-01-30T06:59:29;101554.50;;;7.72;100.00
18436;BME280;9346;52.006;4.720;2023-01-30T07:01:57;101548.19;;;7.72;100.00
18436;BME280;9346;52.006;4.720;2023-01-30T07:04:24;101563.19;;;7.69;100.00
18436;BME280;9346;52.006;4.720;2023-01-30T07:06:51;101561.53;;;7.68;100.00
18436;BME280;9346;52.006;4.720;2023-01-30T07:09:18;101571.88;;;7.66;100.00
18436;BME280;9346;52.006;4.720;2023-01-30T07:11:45;101562.84;;;7.66;100.00
18436;BME280;9346;52.006;4.720;2023-01-30T07:14:17;101569.75;;;7.68;100.00
18436;BME280;9346;52.006;4.720;2023-01-30T07:16:45;101575.72;;;7.65;100.00
18436;BME280;9346;52.006;4.720;2023-01-30T07:19:13;101571.06;;;7.66;100.00
18436;BME280;9346;52.006;4.720;2023-01-30T07:21:40;101586.69;;;7.65;100.00
18436;BME280;9346;52.006;4.720;2023-01-30T07:24:07;101578.94;;;7.62;100.00
18436;BME280;9346;52.006;4.720;2023-01-30T07:26:35;101581.91;;;7.61;100.00
18436;BME280;9346;52.006;4.720;2023-01-30T07:29:02;101582.13;;;7.59;100.00
18436;BME280;9346;52.006;4.720;2023-01-30T07:31:29;101578.13;;;7.62;100.00
18436;BME280;9346;52.006;4.720;2023-01-30T07:33:56;101588.81;;;7.63;100.00
18436;BME280;9346;52.006;4.720;2023-01-30T07:36:25;101587.16;;;7.62;100.00
18436;BME280;9346;52.006;4.720;2023-01-30T07:38:51;101583.84;;;7.60;100.00
18436;BME280;9346;52.006;4.720;2023-01-30T07:41:18;101585.72;;;7.60;100.00
18436;BME280;9346;52.006;4.720;2023-01-30T07:43:47;101579.41;;;7.59;100.00
18436;BME280;9346;52.006;4.720;2023-01-30T07:46:14;101585.72;;;7.60;100.00
18436;BME280;9346;52.006;4.720;2023-01-30T07:48:43;101595.84;;;7.59;100.00
18436;BME280;9346;52.006;4.720;2023-01-30T07:51:12;101579.41;;;7.59;100.00
18436;BME280;9346;52.006;4.720;2023-01-30T07:53:41;101590.13;;;7.61;100.00
18436;BME280;9346;52.006;4.720;2023-01-30T07:56:09;101596.69;;;7.60;100.00
18436;BME280;9346;52.006;4.720;2023-01-30T07:58:38;101586.56;;;7.60;100.00
18436;BME280;9346;52.006;4.720;2023-01-30T08:01:05;101590.97;;;7.61;100.00
18436;BME280;9346;52.006;4.720;2023-01-30T08:03:34;101614.00;;;7.60;100.00
18436;BME280;9346;52.006;4.720;2023-01-30T08:06:04;101626.00;;;7.59;100.00
18436;BME280;9346;52.006;4.720;2023-01-30T08:08:31;101622.22;;;7.60;100.00
18436;BME280;9346;52.006;4.720;2023-01-30T08:11:00;101631.03;;;7.62;100.00
18436;BME280;9346;52.006;4.720;2023-01-30T08:13:27;101629.00;;;7.69;100.00
18436;BME280;9346;52.006;4.720;2023-01-30T08:15:58;101633.06;;;7.67;100.00
18436;BME280;9346;52.006;4.720;2023-01-30T08:18:25;101636.03;;;7.65;100.00
18436;BME280;9346;52.006;4.720;2023-01-30T08:20:56;101622.31;;;7.65;100.00
18436;BME280;9346;52.006;4.720;2023-01-30T08:23:23;101616.84;;;7.65;100.00
18436;BME280;9346;52.006;4.720;2023-01-30T08:25:53;101621.00;;;7.68;100.00
18436;BME280;9346;52.006;4.720;2023-01-30T08:28:22;101634.72;;;7.68;100.00
18436;BME280;9346;52.006;4.720;2023-01-30T08:30:49;101647.16;;;7.70;100.00
18436;BME280;9346;52.006;4.720;2023-01-30T08:33:17;101641.44;;;7.72;100.00
18436;BME280;9346;52.006;4.720;2023-01-30T08:35:44;101631.50;;;7.71;100.00
18436;BME280;9346;52.006;4.720;2023-01-30T08:38:11;101631.03;;;7.74;100.00
18436;BME280;9346;52.006;4.720;2023-01-30T08:40:38;101642.84;;;7.74;100.00
18436;BME280;9346;52.006;4.720;2023-01-30T08:43:06;101651.94;;;7.75;100.00
18436;BME280;9346;52.006;4.720;2023-01-30T08:45:35;101642.00;;;7.74;100.00
18436;BME280;9346;52.006;4.720;2023-01-30T08:48:03;101663.72;;;7.75;100.00
18436;BME280;9346;52.006;4.720;2023-01-30T08:50:46;101664.09;;;7.79;100.00
18436;BME280;9346;52.006;4.720;2023-01-30T08:53:13;101684.47;;;7.83;100.00
18436;BME280;9346;52.006;4.720;2023-01-30T08:55:40;101681.25;;;7.86;100.00
18436;BME280;9346;52.006;4.720;2023-01-30T08:58:07;101687.38;;;7.88;100.00
18436;BME280;9346;52.006;4.720;2023-01-30T09:00:35;101684.50;;;7.94;100.00
18436;BME280;9346;52.006;4.720;2023-01-30T09:03:04;101687.38;;;7.99;100.00
18436;BME280;9346;52.006;4.720;2023-01-30T09:05:31;101693.69;;;8.00;100.00
18436;BME280;9346;52.006;4.720;2023-01-30T09:07:58;101696.19;;;8.01;100.00
18436;BME280;9346;52.006;4.720;2023-01-30T09:10:25;101702.28;;;8.03;100.00
18436;BME280;9346;52.006;4.720;2023-01-30T09:12:52;101687.00;;;8.07;100.00
18436;BME280;9346;52.006;4.720;2023-01-30T09:15:19;101694.16;;;8.08;100.00
18436;BME280;9346;52.006;4.720;2023-01-30T09:17:47;101693.09;;;8.09;100.00
18436;BME280;9346;52.006;4.720;2023-01-30T09:20:22;101696.66;;;8.10;100.00
18436;BME280;9346;52.006;4.720;2023-01-30T09:22:50;101706.94;;;8.14;100.00
18436;BME280;9346;52.006;4.720;2023-01-30T09:25:17;101713.28;;;8.15;100.00
18436;BME280;9346;52.006;4.720;2023-01-30T09:27:48;101711.47;;;8.20;100.00
18436;BME280;9346;52.006;4.720;2023-01-30T09:30:15;101715.53;;;8.18;100.00
18436;BME280;9346;52.006;4.720;2023-01-30T09:32:43;101713.78;;;8.23;100.00
18436;BME280;9346;52.006;4.720;2023-01-30T09:35:12;101711.47;;;8.20;100.00
18436;BME280;9346;52.006;4.720;2023-01-30T09:37:46;101714.22;;;8.20;100.00
18436;BME280;9346;52.006;4.720;2023-01-30T09:40:15;101717.38;;;8.24;100.00
18436;BME280;9346;52.006;4.720;2023-01-30T09:43:18;101732.75;;;8.25;100.00
18436;BME280;9346;52.006;4.720;2023-01-30T09:45:59;101735.88;;;8.28;100.00
18436;BME280;9346;52.006;4.720;2023-01-30T09:48:34;101726.78;;;8.28;100.00
18436;BME280;9346;52.006;4.720;2023-01-30T09:54:22;101728.84;;;8.32;100.00
18436;BME280;9346;52.006;4.720;2023-01-30T09:56:57;101733.84;;;8.35;100.00
18436;BME280;9346;52.006;4.720;2023-01-30T09:59:33;101735.50;;;8.36;100.00
18436;BME280;9346;52.006;4.720;2023-01-30T10:05:01;101751.50;;;8.39;100.00
18436;BME280;9346;52.006;4.720;2023-01-30T10:07:38;101775.75;;;8.42;100.00
18436;BME280;9346;52.006;4.720;2023-01-30T10:10:16;101765.00;;;8.41;100.00
18436;BME280;9346;52.006;4.720;2023-01-30T10:12:59;101761.41;;;8.40;100.00
18436;BME280;9346;52.006;4.720;2023-01-30T10:15:42;101772.16;;;8.42;100.00
18436;BME280;9346;52.006;4.720;2023-01-30T10:18:32;101793.28;;;8.41;100.00
18436;BME280;9346;52.006;4.720;2023-01-30T10:21:13;101791.13;;;8.43;100.00
18436;BME280;9346;52.006;4.720;2023-01-30T10:23:53;101807.97;;;8.47;100.00
18436;BME280;9346;52.006;4.720;2023-01-30T10:26:25;101791.84;;;8.50;100.00
18436;BME280;9346;52.006;4.720;2023-01-30T10:28:57;101798.66;;;8.48;100.00
18436;BME280;9346;52.006;4.720;2023-01-30T10:31:29;101791.84;;;8.50;100.00
18436;BME280;9346;52.006;4.720;2023-01-30T10:34:01;101789.25;;;8.55;100.00
18436;BME280;9346;52.006;4.720;2023-01-30T10:36:35;101785.53;;;8.61;100.00
18436;BME280;9346;52.006;4.720;2023-01-30T10:39:18;101805.97;;;8.65;100.00
18436;BME280;9346;52.006;4.720;2023-01-30T10:41:53;101794.97;;;8.65;100.00
18436;BME280;9346;52.006;4.720;2023-01-30T10:44:22;101811.59;;;8.70;100.00
18436;BME280;9346;52.006;4.720;2023-01-30T10:47:05;101806.44;;;8.74;100.00
18436;BME280;9346;52.006;4.720;2023-01-30T10:49:38;101809.88;;;8.69;100.00
18436;BME280;9346;52.006;4.720;2023-01-30T10:52:20;101799.50;;;8.71;100.00
18436;BME280;9346;52.006;4.720;2023-01-30T10:55:00;101812.63;;;8.69;100.00
18436;BME280;9346;52.006;4.720;2023-01-30T10:57:41;101818.75;;;8.71;100.00
18436;BME280;9346;52.006;4.720;2023-01-30T11:00:18;101813.50;;;8.70;100.00
18436;BME280;9346;52.006;4.720;2023-01-30T11:02:57;101816.47;;;8.68;100.00
18436;BME280;9346;52.006;4.720;2023-01-30T11:05:27;101813.97;;;8.67;100.00
18436;BME280;9346;52.006;4.720;2023-01-30T11:07:57;101816.72;;;8.67;100.00
18436;BME280;9346;52.006;4.720;2023-01-30T11:10:26;101823.63;;;8.69;100.00
18436;BME280;9346;52.006;4.720;2023-01-30T11:12:57;101821.72;;;8.70;100.00
18436;BME280;9346;52.006;4.720;2023-01-30T11:15:38;101822.09;;;8.73;100.00
18436;BME280;9346;52.006;4.720;2023-01-30T11:18:06;101796.53;;;8.73;100.00
18436;BME280;9346;52.006;4.720;2023-01-30T11:20:39;101790.19;;;8.72;100.00
18436;BME280;9346;52.006;4.720;2023-01-30T11:23:20;101810.03;;;8.74;100.00
18436;BME280;9346;52.006;4.720;2023-01-30T11:25:49;101801.78;;;8.74;100.00
18436;BME280;9346;52.006;4.720;2023-01-30T11:28:18;101814.66;;;8.74;100.00
18436;BME280;9346;52.006;4.720;2023-01-30T11:30:52;101814.44;;;8.75;100.00
18436;BME280;9346;52.006;4.720;2023-01-30T11:33:23;101811.69;;;8.75;100.00
18436;BME280;9346;52.006;4.720;2023-01-30T11:36:03;101828.78;;;8.77;100.00
18436;BME280;9346;52.006;4.720;2023-01-30T11:38:32;101822.69;;;8.75;100.00
18436;BME280;9346;52.006;4.720;2023-01-30T11:41:09;101821.50;;;8.83;100.00
18436;BME280;9346;52.006;4.720;2023-01-30T11:43:43;101821.38;;;8.89;100.00
18436;BME280;9346;52.006;4.720;2023-01-30T11:46:13;101815.66;;;8.91;100.00
18436;BME280;9346;52.006;4.720;2023-01-30T11:48:47;101817.31;;;8.92;100.00
18436;BME280;9346;52.006;4.720;2023-01-30T11:51:19;101803.56;;;8.92;100.00
18436;BME280;9346;52.006;4.720;2023-01-30T11:53:48;101808.69;;;8.88;100.00
18436;BME280;9346;52.006;4.720;2023-01-30T11:56:19;101799.41;;;8.89;100.00
18436;BME280;9346;52.006;4.720;2023-01-30T11:58:53;101801.31;;;8.89;100.00
18436;BME280;9346;52.006;4.720;2023-01-30T12:01:25;101809.91;;;8.92;100.00
18436;BME280;9346;52.006;4.720;2023-01-30T12:03:53;101803.34;;;8.93;100.00
18436;BME280;9346;52.006;4.720;2023-01-30T12:06:23;101808.47;;;8.90;100.00
18436;BME280;9346;52.006;4.720;2023-01-30T12:08:52;101821.16;;;8.91;100.00
18436;BME280;9346;52.006;4.720;2023-01-30T12:11:26;101829.63;;;8.89;100.00
18436;BME280;9346;52.006;4.720;2023-01-30T12:14:04;101825.78;;;8.90;100.00
18436;BME280;9346;52.006;4.720;2023-01-30T12:16:45;101824.13;;;8.89;100.00
18436;BME280;9346;52.006;4.720;2023-01-30T12:19:25;101822.44;;;8.88;100.00
18436;BME280;9346;52.006;4.720;2023-01-30T12:21:59;101824.94;;;8.90;100.00
18436;BME280;9346;52.006;4.720;2023-01-30T12:24:30;101823.03;;;8.90;100.00
18436;BME280;9346;52.006;4.720;2023-01-30T12:27:03;101823.13;;;8.95;100.00
18436;BME280;9346;52.006;4.720;2023-01-30T12:29:35;101818.03;;;8.99;100.00
18436;BME280;9346;52.006;4.720;2023-01-30T12:32:11;101831.66;;;9.05;100.00
18436;BME280;9346;52.006;4.720;2023-01-30T12:34:38;101827.56;;;9.08;100.00
18436;BME280;9346;52.006;4.720;2023-01-30T12:37:21;101832.22;;;9.07;100.00
18436;BME280;9346;52.006;4.720;2023-01-30T12:39:56;101833.91;;;9.08;100.00
18436;BME280;9346;52.006;4.720;2023-01-30T12:42:43;101838.81;;;9.06;100.00
18436;BME280;9346;52.006;4.720;2023-01-30T12:45:21;101834.63;;;9.04;100.00
18436;BME280;9346;52.006;4.720;2023-01-30T12:48:17;101833.78;;;9.03;100.00
18436;BME280;9346;52.006;4.720;2023-01-30T12:51:03;101852.66;;;9.00;100.00
18436;BME280;9346;52.006;4.720;2023-01-30T12:53:38;101840.72;;;9.06;100.00
18436;BME280;9346;52.006;4.720;2023-01-30T12:56:25;101842.63;;;9.05;100.00
18436;BME280;9346;52.006;4.720;2023-01-30T12:59:00;101847.91;;;9.07;100.00
18436;BME280;9346;52.006;4.720;2023-01-30T13:01:39;101832.47;;;9.06;100.00
18436;BME280;9346;52.006;4.720;2023-01-30T13:04:19;101853.03;;;9.03;100.00
18436;BME280;9346;52.006;4.720;2023-01-30T13:07:04;101852.53;;;9.06;100.00
18436;BME280;9346;52.006;4.720;2023-01-30T13:09:38;101852.31;;;9.08;100.00
18436;BME280;9346;52.006;4.720;2023-01-30T13:12:14;101858.53;;;9.03;100.00
18436;BME280;9346;52.006;4.720;2023-01-30T13:14:48;101861.28;;;9.03;100.00
18436;BME280;9346;52.006;4.720;2023-01-30T13:17:31;101858.66;;;9.08;100.00
18436;BME280;9346;52.006;4.720;2023-01-30T13:20:03;101869.38;;;9.10;100.00
18436;BME280;9346;52.006;4.720;2023-01-30T13:22:37;101872.72;;;9.12;100.00
18436;BME280;9346;52.006;4.720;2023-01-30T13:25:15;101876.34;;;9.13;100.00
18436;BME280;9346;52.006;4.720;2023-01-30T13:27:52;101870.13;;;9.17;100.00
18436;BME280;9346;52.006;4.720;2023-01-30T13:30:24;101880.63;;;9.20;100.00